Time;durP1;ratioP1;P1;durP2;ratioP2;P2;SDS_P1;SDS_P2;PMS_P1;PMS_P2;Temp;Humidity;BMP_temperature;BMP_pressure;BME280_temperature;BME280_humidity;BME280_pressure;Samples;Min_cycle;Max_cycle;Signal;HPM_P1;HPM_P2
2023/08/03 00:00:44;;;;;;;;;;;;;;;;;;4941802;28;19941;-76
2023/08/03 00:03:31;;;;;;;;;;;;;;;;;;4940667;28;19923;-76
2023/08/03 00:06:17;;;;;;;;;;;;;;;;;;4938211;28;19922;-76
2023/08/03 00:09:04;;;;;;;;;;;;;;;;;;4941524;28;19930;-78
2023/08/03 00:11:50;;;;;;;;;;;;;;;;;;4940009;28;19937;-77
2023/08/03 00:14:37;;;;;;;;;;;;;;;;;;4939921;28;19925;-75
2023/08/03 00:17:23;;;;;;;;;;;;;;;;;;4939289;28;20567;-76
2023/08/03 00:20:10;;;;;;;;;;;;;;;;;;4939738;28;19919;-76
2023/08/03 00:22:56;;;;;;;;;;;;;;;;;;4942088;28;19915;-77
2023/08/03 00:25:43;;;;;;;;;;;;;;;;;;4940753;28;20588;-76
2023/08/03 00:28:29;;;;;;;;;;;;;;;;;;4939799;28;19918;-76
2023/08/03 00:31:16;;;;;;;;;;;;;;;;;;4940801;28;19932;-76
2023/08/03 00:34:02;;;;;;;;;;;;;;;;;;4942796;28;19923;-77
2023/08/03 00:36:49;;;;;;;;;;;;;;;;;;4939958;28;20402;-77
2023/08/03 00:39:35;;;;;;;;;;;;;;;;;;4939958;28;19919;-76
2023/08/03 00:42:21;;;;;;;;;;;;;;;;;;4938192;28;19919;-77
2023/08/03 00:45:08;;;;;;;;;;;;;;;;;;4939193;28;19929;-77
2023/08/03 00:47:54;;;;;;;;;;;;;;;;;;4940903;28;20335;-76
2023/08/03 00:50:41;;;;;;;;;;;;;;;;;;4937708;28;19923;-76
2023/08/03 00:53:27;;;;;;;;;;;;;;;;;;4939304;28;19937;-76
2023/08/03 00:56:14;;;;;;;;;;;;;;;;;;4938010;28;19926;-79
2023/08/03 00:59:00;;;;;;;;;;;;;;;;;;4953112;28;20591;-78
2023/08/03 01:01:47;;;;;;;;;;;;;;;;;;4953914;28;19926;-77
2023/08/03 01:04:33;;;;;;;;;;;;;;;;;;4958728;28;19918;-77
2023/08/03 01:07:21;;;;;;;;;;;;;;;;;;4959475;28;19930;-78
2023/08/03 01:10:08;;;;;;;;;;;;;;;;;;4957679;28;20585;-79
2023/08/03 01:12:54;;;;;;;;;;;;;;;;;;4953182;28;20540;-78
2023/08/03 01:15:41;;;;;;;;;;;;;;;;;;4953233;28;19944;-78
2023/08/03 01:18:27;;;;;;;;;;;;;;;;;;4959229;28;19929;-78
2023/08/03 01:21:14;;;;;;;;;;;;;;;;;;4959379;28;19933;-77
2023/08/03 01:24:00;;;;;;;;;;;;;;;;;;4959716;28;19923;-78
2023/08/03 01:26:46;;;;;;;;;;;;;;;;;;4947508;28;19949;-77
2023/08/03 01:29:33;;;;;;;;;;;;;;;;;;4943801;28;19930;-78
2023/08/03 01:32:19;;;;;;;;;;;;;;;;;;4940659;28;20465;-78
2023/08/03 01:35:06;;;;;;;;;;;;;;;;;;4952051;28;19919;-78
2023/08/03 01:37:52;;;;;;;;;;;;;;;;;;4962737;28;19918;-78
2023/08/03 01:40:39;;;;;;;;;;;;;;;;;;4961256;28;19922;-76
2023/08/03 01:43:25;;;;;;;;;;;;;;;;;;4946977;28;19934;-77
2023/08/03 01:46:12;;;;;;;;;;;;;;;;;;4955988;28;19942;-77
2023/08/03 01:48:58;;;;;;;;;;;;;;;;;;4962438;28;19922;-76
2023/08/03 01:51:45;;;;;;;;;;;;;;;;;;4962426;28;20298;-75
2023/08/03 01:54:31;;;;;;;;;;;;;;;;;;4951598;28;19919;-76
2023/08/03 01:57:18;;;;;;;;;;;;;;;;;;4960591;28;19922;-77
2023/08/03 02:00:04;;;;;;;;;;;;;;;;;;4960714;28;19934;-76
2023/08/03 02:02:51;;;;;;;;;;;;;;;;;;4962605;28;19925;-77
2023/08/03 02:05:37;;;;;;;;;;;;;;;;;;4960579;28;19926;-77
2023/08/03 02:08:24;;;;;;;;;;;;;;;;;;4962818;28;19918;-76
2023/08/03 02:11:10;;;;;;;;;;;;;;;;;;4953387;28;19918;-78
2023/08/03 02:13:57;;;;;;;;;;;;;;;;;;4945178;28;19929;-77
2023/08/03 02:16:43;;;;;;;;;;;;;;;;;;4941978;28;19922;-77
2023/08/03 02:19:30;;;;;;;;;;;;;;;;;;4955265;28;20012;-78
2023/08/03 02:22:16;;;;;;;;;;;;;;;;;;4963526;28;19926;-77
2023/08/03 02:25:03;;;;;;;;;;;;;;;;;;4955183;28;19922;-76
2023/08/03 02:27:50;;;;;;;;;;;;;;;;;;4942782;28;19926;-76
2023/08/03 02:30:37;;;;;;;;;;;;;;;;;;4952922;28;19936;-77
2023/08/03 02:33:24;;;;;;;;;;;;;;;;;;4936908;28;20746;-76
2023/08/03 02:36:10;;;;;;;;;;;;;;;;;;4948596;28;20591;-76
2023/08/03 02:38:57;;;;;;;;;;;;;;;;;;4963037;28;20378;-76
2023/08/03 02:41:43;;;;;;;;;;;;;;;;;;4953464;28;19922;-77
2023/08/03 02:44:31;;;;;;;;;;;;;;;;;;4960390;28;19937;-77
2023/08/03 02:47:18;;;;;;;;;;;;;;;;;;4963059;28;19929;-77
2023/08/03 02:50:04;;;;;;;;;;;;;;;;;;4961230;28;19942;-77
2023/08/03 02:52:51;;;;;;;;;;;;;;;;;;4963001;28;19926;-77
2023/08/03 02:55:39;;;;;;;;;;;;;;;;;;4962559;28;19917;-77
2023/08/03 02:58:26;;;;;;;;;;;;;;;;;;4960102;28;19934;-76
2023/08/03 03:01:12;;;;;;;;;;;;;;;;;;4961699;28;21169;-77
2023/08/03 03:03:59;;;;;;;;;;;;;;;;;;4962932;28;19924;-76
2023/08/03 03:06:45;;;;;;;;;;;;;;;;;;4951568;28;20047;-76
2023/08/03 03:09:32;;;;;;;;;;;;;;;;;;4951947;28;19966;-77
2023/08/03 03:12:18;;;;;;;;;;;;;;;;;;4961263;28;19934;-77
2023/08/03 03:15:04;;;;;;;;;;;;;;;;;;4963352;28;19924;-76
2023/08/03 03:17:51;;;;;;;;;;;;;;;;;;4961802;28;19922;-76
2023/08/03 03:20:37;;;;;;;;;;;;;;;;;;4960171;28;20286;-76
2023/08/03 03:23:24;;;;;;;;;;;;;;;;;;4964779;28;19918;-75
2023/08/03 03:26:10;;;;;;;;;;;;;;;;;;4959209;28;19918;-77
2023/08/03 03:28:57;;;;;;;;;;;;;;;;;;4971936;28;19929;-76
2023/08/03 03:31:43;;;;;;;;;;;;;;;;;;4970762;28;19930;-76
2023/08/03 03:34:30;;;;;;;;;;;;;;;;;;4963930;28;19927;-76
2023/08/03 03:37:16;;;;;;;;;;;;;;;;;;4960123;28;19926;-76
2023/08/03 03:40:03;;;;;;;;;;;;;;;;;;4962856;28;19919;-76
2023/08/03 03:42:49;;;;;;;;;;;;;;;;;;4961722;28;19933;-76
2023/08/03 03:45:36;;;;;;;;;;;;;;;;;;4960529;28;20602;-76
2023/08/03 03:48:22;;;;;;;;;;;;;;;;;;4960216;28;19933;-76
2023/08/03 03:51:09;;;;;;;;;;;;;;;;;;4962233;28;19922;-77
2023/08/03 03:53:55;;;;;;;;;;;;;;;;;;4949858;28;19930;-76
2023/08/03 03:56:42;;;;;;;;;;;;;;;;;;4957699;28;20298;-76
2023/08/03 03:59:28;;;;;;;;;;;;;;;;;;4958072;28;20322;-76
2023/08/03 04:02:15;;;;;;;;;;;;;;;;;;4958690;28;19918;-76
2023/08/03 04:05:01;;;;;;;;;;;;;;;;;;4961073;28;20424;-76
2023/08/03 04:07:48;;;;;;;;;;;;;;;;;;4959602;28;19923;-75
2023/08/03 04:10:35;;;;;;;;;;;;;;;;;;4972873;28;19922;-76
2023/08/03 04:13:24;;;;;;;;;;;;;;;;;;4961108;28;19933;-76
2023/08/03 04:16:11;;;;;;;;;;;;;;;;;;4958875;28;19988;-77
2023/08/03 04:18:57;;;;;;;;;;;;;;;;;;4959823;28;19918;-76
2023/08/03 04:21:44;;;;;;;;;;;;;;;;;;4944929;28;19933;-76
2023/08/03 04:24:30;;;;;;;;;;;;;;;;;;4939872;28;19922;-76
2023/08/03 04:27:17;;;;;;;;;;;;;;;;;;4957514;28;19922;-76
2023/08/03 04:30:03;;;;;;;;;;;;;;;;;;4960986;28;19918;-76
2023/08/03 04:32:50;;;;;;;;;;;;;;;;;;4960297;28;19937;-76
2023/08/03 04:35:37;;;;;;;;;;;;;;;;;;4964327;28;19918;-76
2023/08/03 04:38:23;;;;;;;;;;;;;;;;;;4959817;28;19929;-76
2023/08/03 04:41:10;;;;;;;;;;;;;;;;;;4947175;28;19918;-76
2023/08/03 04:43:56;;;;;;;;;;;;;;;;;;4953231;28;19923;-76
2023/08/03 04:46:43;;;;;;;;;;;;;;;;;;4960449;28;20267;-76
2023/08/03 04:49:29;;;;;;;;;;;;;;;;;;4959384;28;19934;-75
2023/08/03 04:52:16;;;;;;;;;;;;;;;;;;4959614;28;19941;-75
2023/08/03 04:55:02;;;;;;;;;;;;;;;;;;4960588;28;19922;-75
2023/08/03 04:57:49;;;;;;;;;;;;;;;;;;4962950;28;19926;-75
2023/08/03 05:00:35;;;;;;;;;;;;;;;;;;4953108;28;20603;-76
2023/08/03 05:03:22;;;;;;;;;;;;;;;;;;4965159;28;19926;-76
2023/08/03 05:06:08;;;;;;;;;;;;;;;;;;4963971;28;19937;-77
2023/08/03 05:08:55;;;;;;;;;;;;;;;;;;4949903;28;19949;-76
2023/08/03 05:11:42;;;;;;;;;;;;;;;;;;4946716;28;20370;-77
2023/08/03 05:14:28;;;;;;;;;;;;;;;;;;4947377;28;19931;-76
2023/08/03 05:17:14;;;;;;;;;;;;;;;;;;4954994;28;19922;-75
2023/08/03 05:20:01;;;;;;;;;;;;;;;;;;4941855;28;20377;-76
2023/08/03 05:22:48;;;;;;;;;;;;;;;;;;4964484;28;19918;-75
2023/08/03 05:25:34;;;;;;;;;;;;;;;;;;4962630;28;19945;-75
2023/08/03 05:28:21;;;;;;;;;;;;;;;;;;4966442;28;19945;-75
2023/08/03 05:31:07;;;;;;;;;;;;;;;;;;4968112;28;19932;-75
2023/08/03 05:33:54;;;;;;;;;;;;;;;;;;4978938;28;19945;-76
2023/08/03 05:36:40;;;;;;;;;;;;;;;;;;4962425;28;19949;-76
2023/08/03 05:39:27;;;;;;;;;;;;;;;;;;4960334;28;19926;-75
2023/08/03 05:42:14;;;;;;;;;;;;;;;;;;4969154;28;19923;-77
2023/08/03 05:45:00;;;;;;;;;;;;;;;;;;4968905;28;19929;-77
2023/08/03 05:47:47;;;;;;;;;;;;;;;;;;4965938;28;19926;-78
2023/08/03 05:50:33;;;;;;;;;;;;;;;;;;4971621;28;19922;-79
2023/08/03 05:53:20;;;;;;;;;;;;;;;;;;4955148;28;20015;-77
2023/08/03 05:56:06;;;;;;;;;;;;;;;;;;4975032;28;20552;-77
2023/08/03 05:58:53;;;;;;;;;;;;;;;;;;4962923;28;20011;-77
2023/08/03 06:01:39;;;;;;;;;;;;;;;;;;4964255;28;19922;-77
2023/08/03 06:04:25;;;;;;;;;;;;;;;;;;4960563;28;19910;-78
2023/08/03 06:07:12;;;;;;;;;;;;;;;;;;4965925;28;19914;-77
2023/08/03 06:09:58;;;;;;;;;;;;;;;;;;4966426;28;19935;-77
2023/08/03 06:12:45;;;;;;;;;;;;;;;;;;4968479;28;19990;-76
2023/08/03 06:15:31;;;;;;;;;;;;;;;;;;4964980;28;19917;-76
2023/08/03 06:18:18;;;;;;;;;;;;;;;;;;4969336;28;20010;-76
2023/08/03 06:21:04;;;;;;;;;;;;;;;;;;4965711;28;19933;-76
2023/08/03 06:23:51;;;;;;;;;;;;;;;;;;4961385;28;19933;-76
2023/08/03 06:26:38;;;;;;;;;;;;;;;;;;4955553;28;19922;-76
2023/08/03 06:29:24;;;;;;;;;;;;;;;;;;4957069;28;19937;-75
2023/08/03 06:32:11;;;;;;;;;;;;;;;;;;4962658;28;19927;-75
2023/08/03 06:34:57;;;;;;;;;;;;;;;;;;4947171;28;19926;-77
2023/08/03 06:37:44;;;;;;;;;;;;;;;;;;4946888;28;19923;-76
2023/08/03 06:40:30;;;;;;;;;;;;;;;;;;4945547;28;19922;-76
2023/08/03 06:43:17;;;;;;;;;;;;;;;;;;4945679;28;19934;-77
2023/08/03 06:46:04;;;;;;;;;;;;;;;;;;4949414;28;20546;-76
2023/08/03 06:48:50;;;;;;;;;;;;;;;;;;4952007;28;19926;-76
2023/08/03 06:51:38;;;;;;;;;;;;;;;;;;4950107;28;19928;-75
2023/08/03 06:54:24;;;;;;;;;;;;;;;;;;4960688;28;19926;-76
2023/08/03 06:57:11;;;;;;;;;;;;;;;;;;4952523;28;19925;-76
2023/08/03 06:59:58;;;;;;;;;;;;;;;;;;4966636;28;19941;-76
2023/08/03 07:02:44;;;;;;;;;;;;;;;;;;4965597;28;19922;-76
2023/08/03 07:05:31;;;;;;;;;;;;;;;;;;4956620;28;20625;-76
2023/08/03 07:08:17;;;;;;;;;;;;;;;;;;4963981;28;19925;-75
2023/08/03 07:11:04;;;;;;;;;;;;;;;;;;4962550;28;19957;-75
2023/08/03 07:13:50;;;;;;;;;;;;;;;;;;4945466;28;20306;-75
2023/08/03 07:16:38;;;;;;;;;;;;;;;;;;4964970;28;19919;-76
2023/08/03 07:19:24;;;;;;;;;;;;;;;;;;4960552;28;19929;-76
2023/08/03 07:22:11;;;;;;;;;;;;;;;;;;4948742;28;19922;-77
2023/08/03 07:24:57;;;;;;;;;;;;;;;;;;4959254;28;19930;-77
2023/08/03 07:27:44;;;;;;;;;;;;;;;;;;4961446;28;19926;-76
2023/08/03 07:30:30;;;;;;;;;;;;;;;;;;4959928;28;19933;-74
2023/08/03 07:33:17;;;;;;;;;;;;;;;;;;4945401;28;19930;-80
2023/08/03 07:36:03;;;;;;;;;;;;;;;;;;4954681;28;19926;-82
2023/08/03 07:38:50;;;;;;;;;;;;;;;;;;4954956;28;19929;-83
2023/08/03 07:41:36;;;;;;;;;;;;;;;;;;4943407;28;19922;-81
2023/08/03 07:44:23;;;;;;;;;;;;;;;;;;4943406;28;19929;-82
2023/08/03 07:47:09;;;;;;;;;;;;;;;;;;4951146;28;20382;-82
2023/08/03 07:49:56;;;;;;;;;;;;;;;;;;4947278;28;19925;-83
2023/08/03 07:52:42;;;;;;;;;;;;;;;;;;4961547;28;19926;-82
2023/08/03 07:55:29;;;;;;;;;;;;;;;;;;4962886;28;20278;-81
2023/08/03 07:58:15;;;;;;;;;;;;;;;;;;4958186;28;19941;-83
2023/08/03 08:01:02;;;;;;;;;;;;;;;;;;4946490;28;19922;-82
2023/08/03 08:03:48;;;;;;;;;;;;;;;;;;4961304;28;19918;-81
2023/08/03 08:06:35;;;;;;;;;;;;;;;;;;4960349;28;20437;-83
2023/08/03 08:09:22;;;;;;;;;;;;;;;;;;4961699;28;19922;-82
2023/08/03 08:12:08;;;;;;;;;;;;;;;;;;4949199;28;19928;-83
2023/08/03 08:14:55;;;;;;;;;;;;;;;;;;4951241;28;19918;-79
2023/08/03 08:17:41;;;;;;;;;;;;;;;;;;4956879;28;19922;-76
2023/08/03 08:20:28;;;;;;;;;;;;;;;;;;4964147;28;19926;-78
2023/08/03 08:23:14;;;;;;;;;;;;;;;;;;4960340;28;20603;-77
2023/08/03 08:26:02;;;;;;;;;;;;;;;;;;4951389;28;19922;-76
2023/08/03 08:28:49;;;;;;;;;;;;;;;;;;4937624;28;20656;-76
2023/08/03 08:31:36;;;;;;;;;;;;;;;;;;4954769;28;19921;-76
2023/08/03 08:34:22;;;;;;;;;;;;;;;;;;4940552;28;19952;-77
2023/08/03 08:37:09;;;;;;;;;;;;;;;;;;4939473;28;19922;-77
2023/08/03 08:39:55;;;;;;;;;;;;;;;;;;4946898;28;19934;-77
2023/08/03 08:42:42;;;;;;;;;;;;;;;;;;4959152;28;19921;-77
2023/08/03 08:45:28;;;;;;;;;;;;;;;;;;4959208;28;19926;-80
2023/08/03 08:48:15;;;;;;;;;;;;;;;;;;4961188;28;20677;-77
2023/08/03 08:51:01;;;;;;;;;;;;;;;;;;4960249;28;19926;-77
2023/08/03 08:53:48;;;;;;;;;;;;;;;;;;4960809;28;19930;-77
2023/08/03 08:56:34;;;;;;;;;;;;;;;;;;4950574;28;19918;-78
2023/08/03 08:59:21;;;;;;;;;;;;;;;;;;4956757;28;20301;-76
2023/08/03 09:02:08;;;;;;;;;;;;;;;;;;4962398;28;20381;-76
2023/08/03 09:04:59;;;;;;;;;;;;;;;;;;4939819;28;24361;-79
2023/08/03 09:07:46;;;;;;;;;;;;;;;;;;4938290;28;19923;-80
2023/08/03 09:10:33;;;;;;;;;;;;;;;;;;4942413;28;20442;-78
2023/08/03 09:13:19;;;;;;;;;;;;;;;;;;4937410;28;19931;-78
2023/08/03 09:16:06;;;;;;;;;;;;;;;;;;4942093;28;19926;-79
2023/08/03 09:18:52;;;;;;;;;;;;;;;;;;4941659;28;19926;-79
2023/08/03 09:21:39;;;;;;;;;;;;;;;;;;4939180;28;19930;-76
2023/08/03 09:24:25;;;;;;;;;;;;;;;;;;4960164;28;19923;-80
2023/08/03 09:27:12;;;;;;;;;;;;;;;;;;4952870;28;19923;-76
2023/08/03 09:29:58;;;;;;;;;;;;;;;;;;4970789;28;19926;-76
2023/08/03 09:32:45;;;;;;;;;;;;;;;;;;4965927;28;19937;-76
2023/08/03 09:35:31;;;;;;;;;;;;;;;;;;4940598;28;19922;-78
2023/08/03 09:38:18;;;;;;;;;;;;;;;;;;4948203;28;19929;-78
2023/08/03 09:41:04;;;;;;;;;;;;;;;;;;4939834;28;19926;-77
2023/08/03 09:43:51;;;;;;;;;;;;;;;;;;4959871;28;20837;-79
2023/08/03 09:46:37;;;;;;;;;;;;;;;;;;4963712;28;19921;-77
2023/08/03 09:49:24;;;;;;;;;;;;;;;;;;4963303;28;20306;-78
2023/08/03 09:52:11;;;;;;;;;;;;;;;;;;4964697;28;19929;-78
2023/08/03 09:54:57;;;;;;;;;;;;;;;;;;4966603;28;19933;-77
2023/08/03 09:57:44;;;;;;;;;;;;;;;;;;4963815;28;20251;-82
2023/08/03 10:00:30;;;;;;;;;;;;;;;;;;4965339;28;19926;-79
2023/08/03 10:03:21;;;;;;;;;;;;;;;;;;4953797;28;19933;-80
2023/08/03 10:06:08;;;;;;;;;;;;;;;;;;4951239;28;19929;-81
2023/08/03 10:08:54;;;;;;;;;;;;;;;;;;4966490;28;19922;-81
2023/08/03 10:11:41;;;;;;;;;;;;;;;;;;4963457;28;19926;-80
2023/08/03 10:14:27;;;;;;;;;;;;;;;;;;4966394;28;20440;-79
2023/08/03 10:17:14;;;;;;;;;;;;;;;;;;4961035;28;20396;-79
2023/08/03 10:20:00;;;;;;;;;;;;;;;;;;4963655;28;19933;-80
2023/08/03 10:22:47;;;;;;;;;;;;;;;;;;4954987;28;19926;-80
2023/08/03 10:25:33;;;;;;;;;;;;;;;;;;4956286;28;19926;-80
2023/08/03 10:28:20;;;;;;;;;;;;;;;;;;4964852;28;19933;-80
2023/08/03 10:31:07;;;;;;;;;;;;;;;;;;4967186;28;19921;-81
2023/08/03 10:33:53;;;;;;;;;;;;;;;;;;4948365;28;19937;-80
2023/08/03 10:36:40;;;;;;;;;;;;;;;;;;4945139;28;19926;-81
2023/08/03 10:39:26;;;;;;;;;;;;;;;;;;4943468;28;20408;-81
2023/08/03 10:42:13;;;;;;;;;;;;;;;;;;4943410;28;19927;-81
2023/08/03 10:44:59;;;;;;;;;;;;;;;;;;4944490;28;19954;-82
2023/08/03 10:47:46;;;;;;;;;;;;;;;;;;4955706;28;19938;-81
2023/08/03 10:50:32;;;;;;;;;;;;;;;;;;4948299;28;19928;-82
2023/08/03 10:53:19;;;;;;;;;;;;;;;;;;4942723;28;19949;-81
2023/08/03 10:56:05;;;;;;;;;;;;;;;;;;4943553;28;19927;-80
2023/08/03 10:58:52;;;;;;;;;;;;;;;;;;4950158;28;19930;-80
2023/08/03 11:01:39;;;;;;;;;;;;;;;;;;4944520;28;19999;-81
2023/08/03 11:04:25;;;;;;;;;;;;;;;;;;4944097;28;19926;-81
2023/08/03 11:07:12;;;;;;;;;;;;;;;;;;4943941;28;19923;-81
2023/08/03 11:09:58;;;;;;;;;;;;;;;;;;4951077;28;20046;-79
2023/08/03 11:12:46;;;;;;;;;;;;;;;;;;4953894;28;19930;-81
2023/08/03 11:15:32;;;;;;;;;;;;;;;;;;4959425;28;20293;-81
2023/08/03 11:18:19;;;;;;;;;;;;;;;;;;4956712;28;19922;-82
2023/08/03 11:21:05;;;;;;;;;;;;;;;;;;4955392;28;20274;-81
2023/08/03 11:23:52;;;;;;;;;;;;;;;;;;4946514;28;19929;-81
2023/08/03 11:26:38;;;;;;;;;;;;;;;;;;4940900;28;19927;-79
2023/08/03 11:29:25;;;;;;;;;;;;;;;;;;4941599;28;19922;-77
2023/08/03 11:32:12;;;;;;;;;;;;;;;;;;4946566;28;19918;-84
2023/08/03 11:34:58;;;;;;;;;;;;;;;;;;4941394;28;19930;-82
2023/08/03 11:37:45;;;;;;;;;;;;;;;;;;4948710;28;19926;-80
2023/08/03 11:40:31;;;;;;;;;;;;;;;;;;4955406;28;20033;-82
2023/08/03 11:43:19;;;;;;;;;;;;;;;;;;4951969;28;19930;-80
2023/08/03 11:46:05;;;;;;;;;;;;;;;;;;4941387;28;19990;-78
2023/08/03 11:48:52;;;;;;;;;;;;;;;;;;4943967;28;19973;-77
2023/08/03 11:51:38;;;;;;;;;;;;;;;;;;4943993;28;19922;-79
2023/08/03 11:54:25;;;;;;;;;;;;;;;;;;4943192;28;19930;-78
2023/08/03 12:00:17;;;;;;;;;;;;;;;;;;4939723;28;19941;-80
2023/08/03 12:03:03;;;;;;;;;;;;;;;;;;4943869;28;19927;-80
2023/08/03 12:05:53;;;;;;;;;;;;;;;;;;4943507;28;19923;-78
2023/08/03 12:08:40;;;;;;;;;;;;;;;;;;4938095;28;19924;-79
2023/08/03 12:11:26;;;;;;;;;;;;;;;;;;4940388;28;19923;-80
2023/08/03 12:14:13;;;;;;;;;;;;;;;;;;4943028;28;19927;-78
2023/08/03 12:16:59;;;;;;;;;;;;;;;;;;4942350;28;19927;-80
2023/08/03 12:19:45;;;;;;;;;;;;;;;;;;4941885;28;19978;-80
2023/08/03 12:22:32;;;;;;;;;;;;;;;;;;4940864;28;20394;-80
2023/08/03 12:25:18;;;;;;;;;;;;;;;;;;4941166;28;19923;-79
2023/08/03 12:28:05;;;;;;;;;;;;;;;;;;4938447;28;19929;-79
2023/08/03 12:30:51;;;;;;;;;;;;;;;;;;4939019;28;20020;-80
2023/08/03 12:33:38;;;;;;;;;;;;;;;;;;4938494;28;20473;-77
2023/08/03 12:36:24;;;;;;;;;;;;;;;;;;4940650;28;19919;-76
2023/08/03 12:39:11;;;;;;;;;;;;;;;;;;4940673;28;19950;-76
2023/08/03 12:41:57;;;;;;;;;;;;;;;;;;4940756;28;19929;-75
2023/08/03 12:44:44;;;;;;;;;;;;;;;;;;4942338;28;19930;-75
2023/08/03 12:47:30;;;;;;;;;;;;;;;;;;4940310;28;19926;-75
2023/08/03 12:50:17;;;;;;;;;;;;;;;;;;4939267;28;20551;-76
2023/08/03 12:53:03;;;;;;;;;;;;;;;;;;4941019;28;19926;-76
2023/08/03 12:55:50;;;;;;;;;;;;;;;;;;4942037;28;19922;-76
2023/08/03 12:58:36;;;;;;;;;;;;;;;;;;4950308;28;19934;-76
2023/08/03 13:01:23;;;;;;;;;;;;;;;;;;4959796;28;19922;-76
2023/08/03 13:04:09;;;;;;;;;;;;;;;;;;4960552;28;19928;-76
2023/08/03 13:06:56;;;;;;;;;;;;;;;;;;4959993;28;20551;-76
2023/08/03 13:09:42;;;;;;;;;;;;;;;;;;4962855;28;19922;-75
2023/08/03 13:12:29;;;;;;;;;;;;;;;;;;4958825;28;19929;-75
2023/08/03 13:15:15;;;;;;;;;;;;;;;;;;4942415;28;19937;-76
2023/08/03 13:18:02;;;;;;;;;;;;;;;;;;4934445;28;19933;-75
2023/08/03 13:20:48;;;;;;;;;;;;;;;;;;4961880;28;20444;-76
2023/08/03 13:23:35;;;;;;;;;;;;;;;;;;4962487;28;19918;-76
2023/08/03 13:26:21;;;;;;;;;;;;;;;;;;4963246;28;19926;-76
2023/08/03 13:29:08;;;;;;;;;;;;;;;;;;4965943;28;19922;-74
2023/08/03 13:31:55;;;;;;;;;;;;;;;;;;4966549;28;20374;-74
2023/08/03 13:34:41;;;;;;;;;;;;;;;;;;4961546;28;19940;-75
2023/08/03 13:37:27;;;;;;;;;;;;;;;;;;4960054;28;19922;-75
2023/08/03 13:40:14;;;;;;;;;;;;;;;;;;4964131;28;19932;-76
2023/08/03 13:43:01;;;;;;;;;;;;;;;;;;4959084;28;20280;-76
2023/08/03 13:45:47;;;;;;;;;;;;;;;;;;4941497;28;19934;-75
2023/08/03 13:48:34;;;;;;;;;;;;;;;;;;4951612;28;20397;-76
2023/08/03 13:51:20;;;;;;;;;;;;;;;;;;4962030;28;20645;-76
2023/08/03 13:54:07;;;;;;;;;;;;;;;;;;4943363;28;20379;-76
2023/08/03 13:56:53;;;;;;;;;;;;;;;;;;4942880;28;19922;-76
2023/08/03 13:59:40;;;;;;;;;;;;;;;;;;4944868;28;19930;-75
2023/08/03 14:02:26;;;;;;;;;;;;;;;;;;4963070;28;19930;-75
2023/08/03 14:05:15;;;;;;;;;;;;;;;;;;4951596;28;19929;-74
2023/08/03 14:08:03;;;;;;;;;;;;;;;;;;4957355;28;20608;-75
2023/08/03 14:10:50;;;;;;;;;;;;;;;;;;4962282;28;19933;-75
2023/08/03 14:13:36;;;;;;;;;;;;;;;;;;4944647;28;19945;-75
2023/08/03 14:16:23;;;;;;;;;;;;;;;;;;4944098;28;20103;-76
2023/08/03 14:19:09;;;;;;;;;;;;;;;;;;4943126;28;19922;-75
2023/08/03 14:21:56;;;;;;;;;;;;;;;;;;4960940;28;19928;-75
2023/08/03 14:24:42;;;;;;;;;;;;;;;;;;4951388;28;19919;-75
2023/08/03 14:27:29;;;;;;;;;;;;;;;;;;4943762;28;19933;-75
2023/08/03 14:30:15;;;;;;;;;;;;;;;;;;4941894;28;19932;-76
2023/08/03 14:33:03;;;;;;;;;;;;;;;;;;4967521;28;19930;-75
2023/08/03 14:35:49;;;;;;;;;;;;;;;;;;4960514;28;20385;-74
2023/08/03 14:38:36;;;;;;;;;;;;;;;;;;4965623;28;19923;-75
2023/08/03 14:41:25;;;;;;;;;;;;;;;;;;4953764;28;20293;-77
2023/08/03 14:44:11;;;;;;;;;;;;;;;;;;4945907;28;20548;-77
2023/08/03 14:46:58;;;;;;;;;;;;;;;;;;4948357;28;20549;-78
2023/08/03 14:49:44;;;;;;;;;;;;;;;;;;4942582;28;19927;-78
2023/08/03 14:52:31;;;;;;;;;;;;;;;;;;4945494;28;19926;-78
2023/08/03 14:55:17;;;;;;;;;;;;;;;;;;4945621;28;20310;-79
2023/08/03 14:58:04;;;;;;;;;;;;;;;;;;4948681;28;19930;-78
2023/08/03 15:00:50;;;;;;;;;;;;;;;;;;4961833;28;19949;-79
2023/08/03 15:03:37;;;;;;;;;;;;;;;;;;4961172;28;19927;-79
2023/08/03 15:06:23;;;;;;;;;;;;;;;;;;4950058;28;19933;-78
2023/08/03 15:09:11;;;;;;;;;;;;;;;;;;4961224;28;19918;-80
2023/08/03 15:11:57;;;;;;;;;;;;;;;;;;4961794;28;19926;-79
2023/08/03 15:14:44;;;;;;;;;;;;;;;;;;4961167;28;19931;-78
2023/08/03 15:17:30;;;;;;;;;;;;;;;;;;4956899;28;19925;-78
2023/08/03 15:20:17;;;;;;;;;;;;;;;;;;4958193;28;19918;-79
2023/08/03 15:23:03;;;;;;;;;;;;;;;;;;4961730;28;19922;-79
2023/08/03 15:25:50;;;;;;;;;;;;;;;;;;4947849;28;19918;-78
2023/08/03 15:28:36;;;;;;;;;;;;;;;;;;4951538;28;19918;-79
2023/08/03 15:31:24;;;;;;;;;;;;;;;;;;4962676;28;19926;-78
2023/08/03 15:34:11;;;;;;;;;;;;;;;;;;4961791;28;20306;-78
2023/08/03 15:36:57;;;;;;;;;;;;;;;;;;4964785;28;19921;-77
2023/08/03 15:39:44;;;;;;;;;;;;;;;;;;4944534;28;19922;-79
2023/08/03 15:42:30;;;;;;;;;;;;;;;;;;4961104;28;19918;-77
2023/08/03 15:45:17;;;;;;;;;;;;;;;;;;4957464;28;19930;-77
2023/08/03 15:48:03;;;;;;;;;;;;;;;;;;4956939;28;19929;-79
2023/08/03 15:50:50;;;;;;;;;;;;;;;;;;4948118;28;19929;-79
2023/08/03 15:53:36;;;;;;;;;;;;;;;;;;4946624;28;19926;-77
2023/08/03 15:56:23;;;;;;;;;;;;;;;;;;4960357;28;21247;-78
2023/08/03 15:59:09;;;;;;;;;;;;;;;;;;4963119;28;19934;-78
2023/08/03 16:01:56;;;;;;;;;;;;;;;;;;4962897;28;19918;-77
2023/08/03 16:04:42;;;;;;;;;;;;;;;;;;4958784;28;19918;-78
2023/08/03 16:07:29;;;;;;;;;;;;;;;;;;4960123;28;20309;-79
2023/08/03 16:10:15;;;;;;;;;;;;;;;;;;4963711;28;19925;-79
2023/08/03 16:13:02;;;;;;;;;;;;;;;;;;4960042;28;19929;-79
2023/08/03 16:15:48;;;;;;;;;;;;;;;;;;4956103;28;19929;-78
2023/08/03 16:18:35;;;;;;;;;;;;;;;;;;4947273;28;19918;-79
2023/08/03 16:21:21;;;;;;;;;;;;;;;;;;4959882;28;19922;-79
2023/08/03 16:24:08;;;;;;;;;;;;;;;;;;4959765;28;19918;-79
2023/08/03 16:26:54;;;;;;;;;;;;;;;;;;4960779;28;19922;-78
2023/08/03 16:29:41;;;;;;;;;;;;;;;;;;4947645;28;19918;-78
2023/08/03 16:32:27;;;;;;;;;;;;;;;;;;4951508;28;19930;-78
2023/08/03 16:35:14;;;;;;;;;;;;;;;;;;4958450;28;19941;-78
2023/08/03 16:38:00;;;;;;;;;;;;;;;;;;4959943;28;20005;-79
2023/08/03 16:40:47;;;;;;;;;;;;;;;;;;4959968;28;19922;-78
2023/08/03 16:43:33;;;;;;;;;;;;;;;;;;4960026;28;19926;-78
2023/08/03 16:46:20;;;;;;;;;;;;;;;;;;4959786;28;19929;-78
2023/08/03 16:49:06;;;;;;;;;;;;;;;;;;4961464;28;19929;-79
2023/08/03 16:51:53;;;;;;;;;;;;;;;;;;4965414;28;19926;-79
2023/08/03 16:54:39;;;;;;;;;;;;;;;;;;4958750;28;19926;-78
2023/08/03 16:57:26;;;;;;;;;;;;;;;;;;4964273;28;19922;-78
2023/08/03 17:00:14;;;;;;;;;;;;;;;;;;4947473;28;20310;-78
2023/08/03 17:03:01;;;;;;;;;;;;;;;;;;4955871;28;20519;-78
2023/08/03 17:05:48;;;;;;;;;;;;;;;;;;4951101;28;19953;-77
2023/08/03 17:08:34;;;;;;;;;;;;;;;;;;4952066;28;19922;-78
2023/08/03 17:11:21;;;;;;;;;;;;;;;;;;4951783;28;19922;-79
2023/08/03 17:14:07;;;;;;;;;;;;;;;;;;4954020;28;19933;-77
2023/08/03 17:16:54;;;;;;;;;;;;;;;;;;4967501;28;19922;-78
2023/08/03 17:19:40;;;;;;;;;;;;;;;;;;4962815;28;19918;-78
2023/08/03 17:22:27;;;;;;;;;;;;;;;;;;4964793;28;19922;-78
2023/08/03 17:25:13;;;;;;;;;;;;;;;;;;4965398;28;19924;-78
2023/08/03 17:28:00;;;;;;;;;;;;;;;;;;4967346;28;19922;-78
2023/08/03 17:30:46;;;;;;;;;;;;;;;;;;4959661;28;19932;-79
2023/08/03 17:33:33;;;;;;;;;;;;;;;;;;4947660;28;19946;-78
2023/08/03 17:36:19;;;;;;;;;;;;;;;;;;4952276;28;19933;-77
2023/08/03 17:39:06;;;;;;;;;;;;;;;;;;4966622;28;19918;-78
2023/08/03 17:41:53;;;;;;;;;;;;;;;;;;4971192;28;19932;-78
2023/08/03 17:44:39;;;;;;;;;;;;;;;;;;4954286;28;19930;-77
2023/08/03 17:47:25;;;;;;;;;;;;;;;;;;4951202;28;19926;-77
2023/08/03 17:50:12;;;;;;;;;;;;;;;;;;4968616;28;19919;-78
2023/08/03 17:52:58;;;;;;;;;;;;;;;;;;4965731;28;19926;-78
2023/08/03 17:55:45;;;;;;;;;;;;;;;;;;4967443;28;19934;-78
2023/08/03 17:58:32;;;;;;;;;;;;;;;;;;4962226;28;19941;-78
2023/08/03 18:01:20;;;;;;;;;;;;;;;;;;4964444;28;20279;-78
2023/08/03 18:04:07;;;;;;;;;;;;;;;;;;4950346;28;19923;-78
2023/08/03 18:06:54;;;;;;;;;;;;;;;;;;4960482;28;19922;-79
2023/08/03 18:09:40;;;;;;;;;;;;;;;;;;4958408;28;19922;-78
2023/08/03 18:12:27;;;;;;;;;;;;;;;;;;4954653;28;19926;-78
2023/08/03 18:15:13;;;;;;;;;;;;;;;;;;4964157;28;20488;-79
2023/08/03 18:18:00;;;;;;;;;;;;;;;;;;4951213;28;20369;-78
2023/08/03 18:20:46;;;;;;;;;;;;;;;;;;4962294;28;19993;-79
2023/08/03 18:23:33;;;;;;;;;;;;;;;;;;4962904;28;20388;-79
2023/08/03 18:26:19;;;;;;;;;;;;;;;;;;4963156;28;19925;-79
2023/08/03 18:29:06;;;;;;;;;;;;;;;;;;4962987;28;19922;-79
2023/08/03 18:31:53;;;;;;;;;;;;;;;;;;4932087;28;20775;-78
2023/08/03 18:34:40;;;;;;;;;;;;;;;;;;4954382;28;20382;-79
2023/08/03 18:37:27;;;;;;;;;;;;;;;;;;4953431;28;19963;-77
2023/08/03 18:40:13;;;;;;;;;;;;;;;;;;4948438;28;19926;-79
2023/08/03 18:43:00;;;;;;;;;;;;;;;;;;4962928;28;20294;-77
2023/08/03 18:45:46;;;;;;;;;;;;;;;;;;4952731;28;19922;-77
2023/08/03 18:48:33;;;;;;;;;;;;;;;;;;4968612;28;19937;-78
2023/08/03 18:51:19;;;;;;;;;;;;;;;;;;4967616;28;20276;-78
2023/08/03 18:54:06;;;;;;;;;;;;;;;;;;4962897;28;20302;-79
2023/08/03 18:56:52;;;;;;;;;;;;;;;;;;4962556;28;19918;-78
2023/08/03 18:59:38;;;;;;;;;;;;;;;;;;4967253;28;19934;-78